sensor_id;sensor_type;location;lat;lon;timestamp;pressure;altitude;pressure_sealevel;temperature;humidity
64792;BME280;51226;47.504;19.074;2022-12-10T00:01:34;98682.28;;;6.38;96.77
64792;BME280;51226;47.504;19.074;2022-12-10T00:04:37;98694.28;;;6.34;96.97
64792;BME280;51226;47.504;19.074;2022-12-10T00:07:40;98692.75;;;6.41;96.68
64792;BME280;51226;47.504;19.074;2022-12-10T00:10:43;98697.16;;;6.43;96.60
64792;BME280;51226;47.504;19.074;2022-12-10T00:13:47;98687.91;;;6.55;95.68
64792;BME280;51226;47.504;19.074;2022-12-10T00:16:50;98691.97;;;6.43;96.09
64792;BME280;51226;47.504;19.074;2022-12-10T00:19:53;98697.06;;;6.40;96.30
64792;BME280;51226;47.504;19.074;2022-12-10T00:22:56;98694.41;;;6.39;96.40
64792;BME280;51226;47.504;19.074;2022-12-10T00:26:07;98701.34;;;6.40;96.54
64792;BME280;51226;47.504;19.074;2022-12-10T00:29:11;98705.06;;;6.49;96.58
64792;BME280;51226;47.504;19.074;2022-12-10T00:32:14;98710.22;;;6.49;96.54
64792;BME280;51226;47.504;19.074;2022-12-10T00:35:17;98715.41;;;6.49;96.36
64792;BME280;51226;47.504;19.074;2022-12-10T00:38:20;98717.97;;;6.48;96.46
64792;BME280;51226;47.504;19.074;2022-12-10T00:41:23;98720.53;;;6.48;96.54
64792;BME280;51226;47.504;19.074;2022-12-10T00:44:26;98724.78;;;6.44;96.70
64792;BME280;51226;47.504;19.074;2022-12-10T00:47:28;98721.34;;;6.45;96.74
64792;BME280;51226;47.504;19.074;2022-12-10T00:50:31;98736.03;;;6.46;96.77
64792;BME280;51226;47.504;19.074;2022-12-10T00:53:37;98736.97;;;6.48;96.76
64792;BME280;51226;47.504;19.074;2022-12-10T00:56:42;98734.44;;;6.50;96.77
64792;BME280;51226;47.504;19.074;2022-12-10T00:59:45;98740.53;;;6.52;96.79
64792;BME280;51226;47.504;19.074;2022-12-10T01:02:48;98741.50;;;6.56;96.67
64792;BME280;51226;47.504;19.074;2022-12-10T01:05:52;98744.25;;;6.62;96.66
64792;BME280;51226;47.504;19.074;2022-12-10T01:08:57;98744.25;;;6.62;96.59
64792;BME280;51226;47.504;19.074;2022-12-10T01:12:02;98738.97;;;6.59;96.57
64792;BME280;51226;47.504;19.074;2022-12-10T01:15:05;98748.84;;;6.72;95.80
64792;BME280;51226;47.504;19.074;2022-12-10T01:18:08;98748.31;;;6.85;94.48
64792;BME280;51226;47.504;19.074;2022-12-10T01:21:13;98755.97;;;6.81;94.67
64792;BME280;51226;47.504;19.074;2022-12-10T01:24:17;98755.62;;;6.67;95.43
64792;BME280;51226;47.504;19.074;2022-12-10T01:27:19;98760.78;;;6.67;95.79
64792;BME280;51226;47.504;19.074;2022-12-10T01:30:23;98754.81;;;6.70;95.77
64792;BME280;51226;47.504;19.074;2022-12-10T01:33:25;98757.44;;;6.71;95.79
64792;BME280;51226;47.504;19.074;2022-12-10T01:36:32;98747.03;;;6.70;95.98
64792;BME280;51226;47.504;19.074;2022-12-10T01:39:35;98760.41;;;6.85;95.06
64792;BME280;51226;47.504;19.074;2022-12-10T01:42:38;98748.84;;;6.72;95.52
64792;BME280;51226;47.504;19.074;2022-12-10T01:45:41;98740.91;;;6.66;95.92
64792;BME280;51226;47.504;19.074;2022-12-10T01:48:44;98744.34;;;6.65;96.20
64792;BME280;51226;47.504;19.074;2022-12-10T01:51:50;98745.94;;;6.61;96.39
64792;BME280;51226;47.504;19.074;2022-12-10T01:54:53;98743.31;;;6.60;96.54
64792;BME280;51226;47.504;19.074;2022-12-10T01:57:56;98748.47;;;6.58;96.40
64792;BME280;51226;47.504;19.074;2022-12-10T02:01:07;98753.63;;;6.57;96.74
64792;BME280;51226;47.504;19.074;2022-12-10T02:10:43;98777.06;;;6.63;96.15
64792;BME280;51226;47.504;19.074;2022-12-10T02:13:58;98776.16;;;6.61;96.78
64792;BME280;51226;47.504;19.074;2022-12-10T02:17:10;98786.47;;;6.59;97.22
64792;BME280;51226;47.504;19.074;2022-12-10T02:20:29;98774.47;;;6.63;97.51
64792;BME280;51226;47.504;19.074;2022-12-10T02:23:40;98788.38;;;6.65;97.43
64792;BME280;51226;47.504;19.074;2022-12-10T02:27:04;98777.16;;;6.66;97.45
64792;BME280;51226;47.504;19.074;2022-12-10T02:30:09;98778.03;;;6.66;97.46
64792;BME280;51226;47.504;19.074;2022-12-10T02:33:13;98782.44;;;6.69;97.62
64792;BME280;51226;47.504;19.074;2022-12-10T02:36:18;98787.69;;;6.72;98.08
64792;BME280;51226;47.504;19.074;2022-12-10T02:39:29;98787.78;;;6.75;98.08
64792;BME280;51226;47.504;19.074;2022-12-10T02:42:38;98786.09;;;6.77;97.75
64792;BME280;51226;47.504;19.074;2022-12-10T02:45:42;98780.97;;;6.79;97.64
64792;BME280;51226;47.504;19.074;2022-12-10T02:48:48;98779.41;;;6.85;97.37
64792;BME280;51226;47.504;19.074;2022-12-10T02:51:52;98777.59;;;6.83;97.54
64792;BME280;51226;47.504;19.074;2022-12-10T02:54:57;98774.19;;;6.84;97.56
64792;BME280;51226;47.504;19.074;2022-12-10T02:58:12;98776.97;;;6.90;97.60
64792;BME280;51226;47.504;19.074;2022-12-10T03:01:42;98778.81;;;6.96;97.38
64792;BME280;51226;47.504;19.074;2022-12-10T03:04:52;98783.41;;;7.06;97.01
64792;BME280;51226;47.504;19.074;2022-12-10T03:08:08;98779.84;;;7.02;97.03
64792;BME280;51226;47.504;19.074;2022-12-10T03:11:19;98776.50;;;7.07;96.59
64792;BME280;51226;47.504;19.074;2022-12-10T03:14:26;98791.25;;;7.09;96.05
64792;BME280;51226;47.504;19.074;2022-12-10T03:17:31;98792.00;;;7.03;96.35
64792;BME280;51226;47.504;19.074;2022-12-10T03:20:38;98790.31;;;7.05;96.15
64792;BME280;51226;47.504;19.074;2022-12-10T03:23:43;98797.28;;;7.08;95.64
64792;BME280;51226;47.504;19.074;2022-12-10T03:26:49;98809.28;;;7.04;95.82
64792;BME280;51226;47.504;19.074;2022-12-10T03:29:54;98819.59;;;7.03;95.84
64792;BME280;51226;47.504;19.074;2022-12-10T03:32:59;98821.56;;;7.10;95.22
64792;BME280;51226;47.504;19.074;2022-12-10T03:36:03;98807.72;;;7.11;94.06
64792;BME280;51226;47.504;19.074;2022-12-10T03:39:06;98810.13;;;7.03;94.17
64792;BME280;51226;47.504;19.074;2022-12-10T03:42:09;98811.00;;;7.04;93.51
64792;BME280;51226;47.504;19.074;2022-12-10T03:45:12;98799.03;;;7.09;91.91
64792;BME280;51226;47.504;19.074;2022-12-10T03:48:16;98809.09;;;6.97;92.82
64792;BME280;51226;47.504;19.074;2022-12-10T03:51:19;98830.16;;;7.09;91.34
64792;BME280;51226;47.504;19.074;2022-12-10T03:54:22;98829.88;;;7.00;91.73
64792;BME280;51226;47.504;19.074;2022-12-10T03:57:25;98836.13;;;7.07;90.86
64792;BME280;51226;47.504;19.074;2022-12-10T04:00:27;98828.28;;;7.03;92.11
64792;BME280;51226;47.504;19.074;2022-12-10T04:03:35;98828.06;;;6.96;92.87
64792;BME280;51226;47.504;19.074;2022-12-10T04:06:40;98832.53;;;7.01;92.92
64792;BME280;51226;47.504;19.074;2022-12-10T04:09:43;98825.66;;;7.02;92.47
64792;BME280;51226;47.504;19.074;2022-12-10T04:12:46;98841.81;;;6.93;92.48
64792;BME280;51226;47.504;19.074;2022-12-10T04:16:09;98845.97;;;6.88;92.84
64792;BME280;51226;47.504;19.074;2022-12-10T04:19:29;98841.53;;;6.82;93.18
64792;BME280;51226;47.504;19.074;2022-12-10T04:22:32;98844.88;;;6.80;93.45
64792;BME280;51226;47.504;19.074;2022-12-10T04:25:53;98835.28;;;6.76;93.71
64792;BME280;51226;47.504;19.074;2022-12-10T04:29:15;98837.00;;;6.75;93.38
64792;BME280;51226;47.504;19.074;2022-12-10T04:32:19;98846.47;;;6.75;92.70
64792;BME280;51226;47.504;19.074;2022-12-10T04:35:22;98852.41;;;6.71;92.88
64792;BME280;51226;47.504;19.074;2022-12-10T04:38:25;98852.28;;;6.66;93.14
64792;BME280;51226;47.504;19.074;2022-12-10T04:41:28;98850.50;;;6.63;93.23
64792;BME280;51226;47.504;19.074;2022-12-10T04:44:31;98847.91;;;6.63;93.09
64792;BME280;51226;47.504;19.074;2022-12-10T04:47:34;98835.91;;;6.67;92.77
64792;BME280;51226;47.504;19.074;2022-12-10T04:50:36;98839.94;;;6.57;93.12
64792;BME280;51226;47.504;19.074;2022-12-10T04:53:39;98841.97;;;6.67;92.25
64792;BME280;51226;47.504;19.074;2022-12-10T04:56:42;98843.41;;;6.58;92.65
64792;BME280;51226;47.504;19.074;2022-12-10T04:59:45;98839.03;;;6.55;92.90
64792;BME280;51226;47.504;19.074;2022-12-10T05:02:48;98851.03;;;6.52;93.18
64792;BME280;51226;47.504;19.074;2022-12-10T05:05:52;98852.91;;;6.57;92.80
64792;BME280;51226;47.504;19.074;2022-12-10T05:08:55;98853.62;;;6.53;93.06
64792;BME280;51226;47.504;19.074;2022-12-10T05:11:58;98851.13;;;6.56;93.13
64792;BME280;51226;47.504;19.074;2022-12-10T05:15:01;98850.22;;;6.54;93.07
64792;BME280;51226;47.504;19.074;2022-12-10T05:18:04;98858.81;;;6.53;93.19
64792;BME280;51226;47.504;19.074;2022-12-10T05:21:10;98859.91;;;6.61;91.90
64792;BME280;51226;47.504;19.074;2022-12-10T05:24:14;98869.59;;;6.67;91.23
64792;BME280;51226;47.504;19.074;2022-12-10T05:27:17;98887.34;;;6.55;92.17
64792;BME280;51226;47.504;19.074;2022-12-10T05:30:20;98894.16;;;6.51;92.51
64792;BME280;51226;47.504;19.074;2022-12-10T05:33:23;98892.31;;;6.47;92.69
64792;BME280;51226;47.504;19.074;2022-12-10T05:36:30;98896.59;;;6.46;92.97
64792;BME280;51226;47.504;19.074;2022-12-10T05:39:32;98900.12;;;6.48;93.15
64792;BME280;51226;47.504;19.074;2022-12-10T05:42:38;98894.00;;;6.46;93.23
64792;BME280;51226;47.504;19.074;2022-12-10T05:45:40;98890.56;;;6.46;93.01
64792;BME280;51226;47.504;19.074;2022-12-10T05:48:44;98898.88;;;6.64;91.53
64792;BME280;51226;47.504;19.074;2022-12-10T05:51:46;98896.78;;;6.53;92.00
64792;BME280;51226;47.504;19.074;2022-12-10T05:54:49;98897.56;;;6.48;91.98
64792;BME280;51226;47.504;19.074;2022-12-10T05:57:52;98913.75;;;6.43;92.55
64792;BME280;51226;47.504;19.074;2022-12-10T06:00:56;98899.94;;;6.42;92.45
64792;BME280;51226;47.504;19.074;2022-12-10T06:04:01;98893.84;;;6.40;92.67
64792;BME280;51226;47.504;19.074;2022-12-10T06:07:05;98899.75;;;6.36;92.83
64792;BME280;51226;47.504;19.074;2022-12-10T06:10:12;98902.34;;;6.36;92.99
64792;BME280;51226;47.504;19.074;2022-12-10T06:13:15;98909.19;;;6.34;93.07
64792;BME280;51226;47.504;19.074;2022-12-10T06:16:18;98907.62;;;6.39;92.52
64792;BME280;51226;47.504;19.074;2022-12-10T06:19:21;98912.84;;;6.41;92.39
64792;BME280;51226;47.504;19.074;2022-12-10T06:22:23;98914.47;;;6.37;92.58
64792;BME280;51226;47.504;19.074;2022-12-10T06:25:26;98928.28;;;6.38;92.40
64792;BME280;51226;47.504;19.074;2022-12-10T06:28:29;98929.19;;;6.40;92.27
64792;BME280;51226;47.504;19.074;2022-12-10T06:31:32;98925.69;;;6.38;92.04
64792;BME280;51226;47.504;19.074;2022-12-10T06:34:35;98922.66;;;6.51;90.64
64792;BME280;51226;47.504;19.074;2022-12-10T06:37:44;98917.06;;;6.37;91.30
64792;BME280;51226;47.504;19.074;2022-12-10T06:40:47;98917.81;;;6.35;91.54
64792;BME280;51226;47.504;19.074;2022-12-10T06:43:49;98931.47;;;6.29;92.12
64792;BME280;51226;47.504;19.074;2022-12-10T06:46:52;98944.41;;;6.29;92.42
64792;BME280;51226;47.504;19.074;2022-12-10T06:49:55;98938.38;;;6.28;92.41
64792;BME280;51226;47.504;19.074;2022-12-10T06:52:58;98940.09;;;6.29;92.12
64792;BME280;51226;47.504;19.074;2022-12-10T06:56:01;98941.53;;;6.47;90.00
64792;BME280;51226;47.504;19.074;2022-12-10T06:59:05;98943.91;;;6.41;89.69
64792;BME280;51226;47.504;19.074;2022-12-10T07:02:11;98948.53;;;6.51;87.33
64792;BME280;51226;47.504;19.074;2022-12-10T07:05:14;98927.16;;;6.57;86.75
64792;BME280;51226;47.504;19.074;2022-12-10T07:08:17;98929.13;;;6.37;88.21
64792;BME280;51226;47.504;19.074;2022-12-10T07:11:23;98931.72;;;6.37;88.61
64792;BME280;51226;47.504;19.074;2022-12-10T07:14:26;98938.62;;;6.38;87.89
64792;BME280;51226;47.504;19.074;2022-12-10T07:17:29;98934.47;;;6.43;87.31
64792;BME280;51226;47.504;19.074;2022-12-10T07:20:32;98934.34;;;6.38;87.42
64792;BME280;51226;47.504;19.074;2022-12-10T07:23:35;98940.16;;;6.31;87.30
64792;BME280;51226;47.504;19.074;2022-12-10T07:26:39;98945.94;;;6.22;88.02
64792;BME280;51226;47.504;19.074;2022-12-10T07:29:43;98936.44;;;6.23;88.00
64792;BME280;51226;47.504;19.074;2022-12-10T07:32:46;98939.78;;;6.19;88.41
64792;BME280;51226;47.504;19.074;2022-12-10T07:35:49;98919.44;;;6.31;88.55
64792;BME280;51226;47.504;19.074;2022-12-10T07:38:53;98909.88;;;6.28;88.21
64792;BME280;51226;47.504;19.074;2022-12-10T07:41:56;98900.44;;;6.30;88.15
64792;BME280;51226;47.504;19.074;2022-12-10T07:44:59;98910.84;;;6.32;87.56
64792;BME280;51226;47.504;19.074;2022-12-10T07:48:02;98911.81;;;6.36;86.94
64792;BME280;51226;47.504;19.074;2022-12-10T07:51:05;98918.81;;;6.38;86.84
64792;BME280;51226;47.504;19.074;2022-12-10T07:54:08;98923.06;;;6.36;86.76
64792;BME280;51226;47.504;19.074;2022-12-10T07:57:11;98929.03;;;6.34;86.60
64792;BME280;51226;47.504;19.074;2022-12-10T08:00:14;98942.28;;;6.44;85.13
64792;BME280;51226;47.504;19.074;2022-12-10T08:03:19;98940.34;;;6.37;85.33
64792;BME280;51226;47.504;19.074;2022-12-10T08:06:23;98953.31;;;6.37;85.42
64792;BME280;51226;47.504;19.074;2022-12-10T08:09:28;98938.09;;;6.48;85.54
64792;BME280;51226;47.504;19.074;2022-12-10T08:12:30;98934.16;;;6.61;84.40
64792;BME280;51226;47.504;19.074;2022-12-10T08:15:33;98926.97;;;6.81;82.32
64792;BME280;51226;47.504;19.074;2022-12-10T08:18:36;98925.44;;;6.87;81.84
64792;BME280;51226;47.504;19.074;2022-12-10T08:21:39;98942.53;;;6.81;82.90
64792;BME280;51226;47.504;19.074;2022-12-10T08:24:42;98936.47;;;6.80;83.03
64792;BME280;51226;47.504;19.074;2022-12-10T08:27:45;98915.75;;;6.80;82.91
64792;BME280;51226;47.504;19.074;2022-12-10T08:30:48;98913.38;;;6.88;82.76
64792;BME280;51226;47.504;19.074;2022-12-10T08:33:52;98921.38;;;6.96;81.86
64792;BME280;51226;47.504;19.074;2022-12-10T08:36:54;98913.16;;;7.11;80.90
64792;BME280;51226;47.504;19.074;2022-12-10T08:39:57;98910.13;;;6.95;82.13
64792;BME280;51226;47.504;19.074;2022-12-10T08:43:00;98910.41;;;7.06;81.17
64792;BME280;51226;47.504;19.074;2022-12-10T08:46:03;98907.75;;;7.03;81.70
64792;BME280;51226;47.504;19.074;2022-12-10T08:49:06;98908.69;;;7.07;81.75
64792;BME280;51226;47.504;19.074;2022-12-10T08:52:09;98916.75;;;7.16;81.37
64792;BME280;51226;47.504;19.074;2022-12-10T08:55:12;98931.72;;;7.26;80.75
64792;BME280;51226;47.504;19.074;2022-12-10T08:58:15;98933.63;;;7.33;79.88
64792;BME280;51226;47.504;19.074;2022-12-10T09:01:18;98933.91;;;7.42;79.25
64792;BME280;51226;47.504;19.074;2022-12-10T09:04:22;98941.00;;;7.50;78.94
64792;BME280;51226;47.504;19.074;2022-12-10T09:07:24;98941.41;;;7.32;79.44
64792;BME280;51226;47.504;19.074;2022-12-10T09:10:28;98946.31;;;7.22;80.43
64792;BME280;51226;47.504;19.074;2022-12-10T09:13:30;98940.13;;;7.17;81.13
64792;BME280;51226;47.504;19.074;2022-12-10T09:16:36;98950.88;;;7.31;78.20
64792;BME280;51226;47.504;19.074;2022-12-10T09:19:40;98952.50;;;7.28;79.07
64792;BME280;51226;47.504;19.074;2022-12-10T09:22:43;98950.88;;;7.31;79.13
64792;BME280;51226;47.504;19.074;2022-12-10T09:25:45;98948.09;;;7.23;79.76
64792;BME280;51226;47.504;19.074;2022-12-10T09:28:51;98934.94;;;7.17;80.47
64792;BME280;51226;47.504;19.074;2022-12-10T09:31:54;98934.53;;;7.34;79.45
64792;BME280;51226;47.504;19.074;2022-12-10T09:34:57;98930.12;;;7.31;79.56
64792;BME280;51226;47.504;19.074;2022-12-10T09:38:00;98934.97;;;7.19;79.12
64792;BME280;51226;47.504;19.074;2022-12-10T09:41:11;98932.22;;;7.13;80.94
64792;BME280;51226;47.504;19.074;2022-12-10T09:54:33;98910.19;;;7.29;81.67
64792;BME280;51226;47.504;19.074;2022-12-10T09:57:43;98908.34;;;7.24;82.36
64792;BME280;51226;47.504;19.074;2022-12-10T10:00:50;98900.56;;;7.24;81.64
64792;BME280;51226;47.504;19.074;2022-12-10T10:03:54;98886.09;;;7.33;81.13
64792;BME280;51226;47.504;19.074;2022-12-10T10:06:57;98892.94;;;7.31;81.48
64792;BME280;51226;47.504;19.074;2022-12-10T10:10:04;98890.56;;;7.38;80.42
64792;BME280;51226;47.504;19.074;2022-12-10T10:16:26;98889.53;;;7.32;79.65
64792;BME280;51226;47.504;19.074;2022-12-10T10:19:33;98880.72;;;7.27;79.40
64792;BME280;51226;47.504;19.074;2022-12-10T10:22:40;98887.50;;;7.21;79.43
64792;BME280;51226;47.504;19.074;2022-12-10T10:25:43;98883.41;;;7.30;78.57
64792;BME280;51226;47.504;19.074;2022-12-10T10:28:48;98884.94;;;7.23;78.86
64792;BME280;51226;47.504;19.074;2022-12-10T10:32:14;98890.53;;;7.05;80.09
64792;BME280;51226;47.504;19.074;2022-12-10T10:35:25;98892.00;;;6.95;80.90
64792;BME280;51226;47.504;19.074;2022-12-10T10:38:29;98880.81;;;6.98;81.08
64792;BME280;51226;47.504;19.074;2022-12-10T10:41:36;98881.81;;;7.03;79.96
64792;BME280;51226;47.504;19.074;2022-12-10T10:44:42;98885.41;;;7.08;80.57
64792;BME280;51226;47.504;19.074;2022-12-10T10:47:45;98888.13;;;7.13;79.54
64792;BME280;51226;47.504;19.074;2022-12-10T10:51:08;98897.47;;;7.06;79.74
64792;BME280;51226;47.504;19.074;2022-12-10T10:54:11;98894.69;;;7.00;80.13
64792;BME280;51226;47.504;19.074;2022-12-10T10:57:32;98898.09;;;6.97;80.03
64792;BME280;51226;47.504;19.074;2022-12-10T11:00:35;98891.44;;;7.07;79.10
64792;BME280;51226;47.504;19.074;2022-12-10T11:03:46;98901.69;;;7.02;79.45
64792;BME280;51226;47.504;19.074;2022-12-10T11:06:51;98886.84;;;6.97;80.19
64792;BME280;51226;47.504;19.074;2022-12-10T11:09:58;98880.72;;;6.95;80.44
64792;BME280;51226;47.504;19.074;2022-12-10T11:16:23;98865.91;;;6.89;81.21
64792;BME280;51226;47.504;19.074;2022-12-10T11:19:27;98866.66;;;6.86;81.11
64792;BME280;51226;47.504;19.074;2022-12-10T11:22:32;98863.13;;;6.83;81.64
64792;BME280;51226;47.504;19.074;2022-12-10T11:25:54;98858.03;;;6.86;81.94
64792;BME280;51226;47.504;19.074;2022-12-10T11:29:11;98852.03;;;6.87;81.83
64792;BME280;51226;47.504;19.074;2022-12-10T11:32:30;98854.66;;;6.89;82.03
64792;BME280;51226;47.504;19.074;2022-12-10T11:42:28;98837.16;;;6.81;81.97
64792;BME280;51226;47.504;19.074;2022-12-10T11:59:36;98802.75;;;6.85;82.22
64792;BME280;51226;47.504;19.074;2022-12-10T12:13:05;98794.38;;;6.64;83.05
64792;BME280;51226;47.504;19.074;2022-12-10T12:16:26;98789.03;;;6.58;83.58
64792;BME280;51226;47.504;19.074;2022-12-10T12:19:38;98783.88;;;6.59;83.76
64792;BME280;51226;47.504;19.074;2022-12-10T12:22:46;98788.34;;;6.63;82.91
64792;BME280;51226;47.504;19.074;2022-12-10T12:25:56;98784.59;;;6.54;83.75
64792;BME280;51226;47.504;19.074;2022-12-10T12:29:19;98781.00;;;6.48;83.55
64792;BME280;51226;47.504;19.074;2022-12-10T12:32:32;98773.34;;;6.53;82.76
64792;BME280;51226;47.504;19.074;2022-12-10T12:35:42;98779.09;;;6.43;83.75
64792;BME280;51226;47.504;19.074;2022-12-10T12:42:48;98777.12;;;6.34;84.88
64792;BME280;51226;47.504;19.074;2022-12-10T12:45:53;98769.28;;;6.31;85.55
64792;BME280;51226;47.504;19.074;2022-12-10T12:49:13;98772.63;;;6.27;85.77
64792;BME280;51226;47.504;19.074;2022-12-10T12:52:28;98771.78;;;6.28;85.12
64792;BME280;51226;47.504;19.074;2022-12-10T12:55:41;98779.50;;;6.26;85.50
64792;BME280;51226;47.504;19.074;2022-12-10T13:05:55;98797.13;;;6.09;86.02
64792;BME280;51226;47.504;19.074;2022-12-10T13:09:26;98787.63;;;6.08;86.40
64792;BME280;51226;47.504;19.074;2022-12-10T13:12:31;98797.25;;;6.14;86.04
64792;BME280;51226;47.504;19.074;2022-12-10T13:15:38;98794.63;;;6.12;86.12
64792;BME280;51226;47.504;19.074;2022-12-10T13:18:41;98804.37;;;6.21;85.41
64792;BME280;51226;47.504;19.074;2022-12-10T13:25:09;98804.84;;;6.08;86.13
64792;BME280;51226;47.504;19.074;2022-12-10T13:38:22;98792.69;;;6.05;86.62
64792;BME280;51226;47.504;19.074;2022-12-10T13:41:25;98799.59;;;6.05;87.08
64792;BME280;51226;47.504;19.074;2022-12-10T13:44:49;98796.09;;;6.04;87.25
64792;BME280;51226;47.504;19.074;2022-12-10T14:01:33;98787.44;;;6.02;86.95
64792;BME280;51226;47.504;19.074;2022-12-10T14:08:03;98779.38;;;5.94;87.67
64792;BME280;51226;47.504;19.074;2022-12-10T14:11:21;98769.78;;;5.90;87.89
64792;BME280;51226;47.504;19.074;2022-12-10T14:14:35;98769.69;;;5.87;87.95
64792;BME280;51226;47.504;19.074;2022-12-10T14:17:42;98769.75;;;5.89;87.83
64792;BME280;51226;47.504;19.074;2022-12-10T14:20:49;98766.19;;;5.85;88.19
64792;BME280;51226;47.504;19.074;2022-12-10T14:23:53;98769.75;;;5.89;87.44
64792;BME280;51226;47.504;19.074;2022-12-10T14:33:24;98773.94;;;5.85;86.97
64792;BME280;51226;47.504;19.074;2022-12-10T14:36:31;98775.00;;;5.92;86.54
64792;BME280;51226;47.504;19.074;2022-12-10T14:39:37;98773.84;;;5.82;87.16
64792;BME280;51226;47.504;19.074;2022-12-10T14:42:41;98773.75;;;5.79;87.66
64792;BME280;51226;47.504;19.074;2022-12-10T14:45:56;98772.78;;;5.75;88.10
64792;BME280;51226;47.504;19.074;2022-12-10T14:48:59;98778.78;;;5.74;88.29
64792;BME280;51226;47.504;19.074;2022-12-10T14:52:02;98776.13;;;5.73;88.42
64792;BME280;51226;47.504;19.074;2022-12-10T14:55:16;98775.22;;;5.71;88.11
64792;BME280;51226;47.504;19.074;2022-12-10T14:58:43;98773.47;;;5.70;88.47
64792;BME280;51226;47.504;19.074;2022-12-10T15:01:51;98771.78;;;5.70;88.47
64792;BME280;51226;47.504;19.074;2022-12-10T15:04:58;98773.53;;;5.71;88.18
64792;BME280;51226;47.504;19.074;2022-12-10T15:08:14;98769.28;;;5.73;87.59
64792;BME280;51226;47.504;19.074;2022-12-10T15:11:19;98760.59;;;5.71;87.73
64792;BME280;51226;47.504;19.074;2022-12-10T15:14:23;98758.94;;;5.73;87.74
64792;BME280;51226;47.504;19.074;2022-12-10T15:17:41;98751.94;;;5.71;88.02
64792;BME280;51226;47.504;19.074;2022-12-10T15:20:50;98759.66;;;5.69;88.33
64792;BME280;51226;47.504;19.074;2022-12-10T15:24:25;98748.50;;;5.70;88.30
64792;BME280;51226;47.504;19.074;2022-12-10T15:27:28;98754.53;;;5.71;88.15
64792;BME280;51226;47.504;19.074;2022-12-10T15:30:34;98752.00;;;5.72;88.34
64792;BME280;51226;47.504;19.074;2022-12-10T15:33:52;98746.06;;;5.75;87.88
64792;BME280;51226;47.504;19.074;2022-12-10T15:37:00;98749.31;;;5.69;88.31
64792;BME280;51226;47.504;19.074;2022-12-10T15:40:07;98733.78;;;5.69;88.51
64792;BME280;51226;47.504;19.074;2022-12-10T15:46:25;98737.28;;;5.70;88.27
64792;BME280;51226;47.504;19.074;2022-12-10T15:49:29;98729.47;;;5.68;88.54
64792;BME280;51226;47.504;19.074;2022-12-10T15:52:32;98734.63;;;5.68;88.78
64792;BME280;51226;47.504;19.074;2022-12-10T15:55:35;98730.28;;;5.67;88.00
64792;BME280;51226;47.504;19.074;2022-12-10T15:58:41;98720.59;;;5.60;88.71
64792;BME280;51226;47.504;19.074;2022-12-10T16:01:45;98729.13;;;5.57;89.25
64792;BME280;51226;47.504;19.074;2022-12-10T16:04:48;98730.84;;;5.57;89.56
64792;BME280;51226;47.504;19.074;2022-12-10T16:07:54;98720.41;;;5.54;89.75
64792;BME280;51226;47.504;19.074;2022-12-10T16:11:01;98715.31;;;5.57;89.26
64792;BME280;51226;47.504;19.074;2022-12-10T16:14:04;98710.34;;;5.63;88.75
64792;BME280;51226;47.504;19.074;2022-12-10T16:17:10;98704.38;;;5.66;88.94
64792;BME280;51226;47.504;19.074;2022-12-10T16:23:21;98709.50;;;5.64;89.49
64792;BME280;51226;47.504;19.074;2022-12-10T16:26:24;98705.37;;;5.71;89.26
64792;BME280;51226;47.504;19.074;2022-12-10T16:29:26;98695.13;;;5.74;89.15
64792;BME280;51226;47.504;19.074;2022-12-10T16:32:29;98699.50;;;5.75;89.18
64792;BME280;51226;47.504;19.074;2022-12-10T16:35:32;98687.28;;;5.71;90.00
64792;BME280;51226;47.504;19.074;2022-12-10T16:38:35;98682.31;;;5.77;89.61
64792;BME280;51226;47.504;19.074;2022-12-10T16:41:38;98679.72;;;5.77;89.78
64792;BME280;51226;47.504;19.074;2022-12-10T16:44:41;98678.00;;;5.78;89.96
64792;BME280;51226;47.504;19.074;2022-12-10T16:47:43;98673.88;;;5.84;89.47
64792;BME280;51226;47.504;19.074;2022-12-10T16:50:48;98677.38;;;5.86;89.50
64792;BME280;51226;47.504;19.074;2022-12-10T16:53:51;98665.06;;;5.78;90.01
64792;BME280;51226;47.504;19.074;2022-12-10T16:56:54;98672.72;;;5.74;90.27
64792;BME280;51226;47.504;19.074;2022-12-10T16:59:57;98670.94;;;5.72;90.13
64792;BME280;51226;47.504;19.074;2022-12-10T17:03:00;98658.87;;;5.72;90.32
64792;BME280;51226;47.504;19.074;2022-12-10T17:06:11;98659.03;;;5.77;89.80
64792;BME280;51226;47.504;19.074;2022-12-10T17:09:14;98654.66;;;5.76;89.93
64792;BME280;51226;47.504;19.074;2022-12-10T17:12:17;98642.69;;;5.78;89.96
64792;BME280;51226;47.504;19.074;2022-12-10T17:15:20;98640.00;;;5.75;90.40
64792;BME280;51226;47.504;19.074;2022-12-10T17:18:23;98633.00;;;5.72;90.65
64792;BME280;51226;47.504;19.074;2022-12-10T17:21:26;98641.63;;;5.71;90.80
64792;BME280;51226;47.504;19.074;2022-12-10T17:24:29;98637.41;;;5.75;90.32
64792;BME280;51226;47.504;19.074;2022-12-10T17:27:32;98626.16;;;5.74;90.59
64792;BME280;51226;47.504;19.074;2022-12-10T17:30:41;98618.38;;;5.73;91.02
64792;BME280;51226;47.504;19.074;2022-12-10T17:33:44;98610.59;;;5.73;91.15
64792;BME280;51226;47.504;19.074;2022-12-10T17:36:53;98609.78;;;5.74;90.75
64792;BME280;51226;47.504;19.074;2022-12-10T17:39:56;98605.47;;;5.74;91.12
64792;BME280;51226;47.504;19.074;2022-12-10T17:42:59;98606.34;;;5.73;91.35
64792;BME280;51226;47.504;19.074;2022-12-10T17:46:02;98597.72;;;5.74;91.23
64792;BME280;51226;47.504;19.074;2022-12-10T17:49:05;98593.34;;;5.72;91.31
64792;BME280;51226;47.504;19.074;2022-12-10T17:52:08;98586.31;;;5.68;91.35
64792;BME280;51226;47.504;19.074;2022-12-10T17:55:11;98595.28;;;5.79;90.05
64792;BME280;51226;47.504;19.074;2022-12-10T17:58:14;98595.91;;;5.70;90.91
64792;BME280;51226;47.504;19.074;2022-12-10T18:01:18;98593.16;;;5.66;91.56
64792;BME280;51226;47.504;19.074;2022-12-10T18:04:21;98586.22;;;5.63;92.02
64792;BME280;51226;47.504;19.074;2022-12-10T18:07:24;98586.28;;;5.66;92.27
64792;BME280;51226;47.504;19.074;2022-12-10T18:10:29;98581.19;;;5.69;92.01
64792;BME280;51226;47.504;19.074;2022-12-10T18:13:33;98574.50;;;5.76;91.64